Macmerry, United Kingdom
Current Conditions -  °F | °C
As of 5:20 PM on Thursday 30 Oct 2014 (Local Time) from EGPH Reporting Station
Broken Clouds Broken Clouds  
Wind Chill: 52°   Ceiling: 1900
Heat Index: 52°   Visibility: 6mi
Dew Point: 52°   Wind: 5mph
Humidity: 100%   Direction: 70°ENE
Pressure: 29.85"   Gusts: NA
Location:  55.94°N, 2.91°W
Report Text: EGPH 301720Z 07004KT 9999 BKN019 11/11 Q1011
Loading
Personal Weather Stations






























Interactive Weather Map
Tropical Storm Tracking
New forecast layout! Learn more

10-Day Weather Forecast

Advertisements
Track Severe Weather on mobile